sensor_id;sensor_type;location;lat;lon;timestamp;P1;durP1;ratioP1;P2;durP2;ratioP2
20531;SDS011;10424;52.102;8.084;2023-08-30T00:00:06;18.52;;;13.43;;
20531;SDS011;10424;52.102;8.084;2023-08-30T00:02:33;19.23;;;13.43;;
20531;SDS011;10424;52.102;8.084;2023-08-30T00:05:02;24.42;;;14.10;;
20531;SDS011;10424;52.102;8.084;2023-08-30T00:07:29;20.50;;;14.45;;
20531;SDS011;10424;52.102;8.084;2023-08-30T00:09:57;22.50;;;13.93;;
20531;SDS011;10424;52.102;8.084;2023-08-30T00:12:25;20.42;;;13.68;;
20531;SDS011;10424;52.102;8.084;2023-08-30T00:14:53;19.13;;;14.10;;
20531;SDS011;10424;52.102;8.084;2023-08-30T00:17:21;29.63;;;14.77;;
20531;SDS011;10424;52.102;8.084;2023-08-30T00:19:48;18.70;;;13.60;;
20531;SDS011;10424;52.102;8.084;2023-08-30T00:22:17;20.30;;;14.25;;
20531;SDS011;10424;52.102;8.084;2023-08-30T00:24:45;19.98;;;14.10;;
20531;SDS011;10424;52.102;8.084;2023-08-30T00:27:12;21.92;;;14.57;;
20531;SDS011;10424;52.102;8.084;2023-08-30T00:29:39;19.88;;;13.80;;
20531;SDS011;10424;52.102;8.084;2023-08-30T00:32:08;20.15;;;14.02;;
20531;SDS011;10424;52.102;8.084;2023-08-30T00:34:35;20.38;;;14.18;;
20531;SDS011;10424;52.102;8.084;2023-08-30T00:37:03;19.15;;;13.68;;
20531;SDS011;10424;52.102;8.084;2023-08-30T00:39:30;18.00;;;13.48;;
20531;SDS011;10424;52.102;8.084;2023-08-30T00:41:57;20.30;;;13.93;;
20531;SDS011;10424;52.102;8.084;2023-08-30T00:44:30;17.30;;;12.80;;
20531;SDS011;10424;52.102;8.084;2023-08-30T00:46:57;21.30;;;13.52;;
20531;SDS011;10424;52.102;8.084;2023-08-30T00:49:26;18.75;;;13.05;;
20531;SDS011;10424;52.102;8.084;2023-08-30T00:51:53;18.88;;;13.57;;
20531;SDS011;10424;52.102;8.084;2023-08-30T00:54:21;21.40;;;13.93;;
20531;SDS011;10424;52.102;8.084;2023-08-30T00:56:48;19.83;;;13.70;;
20531;SDS011;10424;52.102;8.084;2023-08-30T00:59:15;20.98;;;13.85;;
20531;SDS011;10424;52.102;8.084;2023-08-30T01:01:43;20.65;;;13.43;;
20531;SDS011;10424;52.102;8.084;2023-08-30T01:07:15;17.92;;;13.73;;
20531;SDS011;10424;52.102;8.084;2023-08-30T01:09:44;19.42;;;14.20;;
20531;SDS011;10424;52.102;8.084;2023-08-30T01:12:12;18.17;;;13.88;;
20531;SDS011;10424;52.102;8.084;2023-08-30T01:14:43;20.73;;;14.88;;
20531;SDS011;10424;52.102;8.084;2023-08-30T01:17:12;21.13;;;14.63;;
20531;SDS011;10424;52.102;8.084;2023-08-30T01:19:42;20.42;;;14.65;;
20531;SDS011;10424;52.102;8.084;2023-08-30T01:22:12;21.15;;;14.70;;
20531;SDS011;10424;52.102;8.084;2023-08-30T01:24:44;16.70;;;13.57;;
20531;SDS011;10424;52.102;8.084;2023-08-30T01:27:14;19.75;;;14.35;;
20531;SDS011;10424;52.102;8.084;2023-08-30T01:29:43;19.63;;;14.35;;
20531;SDS011;10424;52.102;8.084;2023-08-30T01:32:11;21.42;;;14.23;;
20531;SDS011;10424;52.102;8.084;2023-08-30T01:34:39;20.50;;;15.07;;
20531;SDS011;10424;52.102;8.084;2023-08-30T01:37:06;21.30;;;15.18;;
20531;SDS011;10424;52.102;8.084;2023-08-30T01:39:34;19.75;;;14.98;;
20531;SDS011;10424;52.102;8.084;2023-08-30T01:42:02;28.58;;;14.73;;
20531;SDS011;10424;52.102;8.084;2023-08-30T01:44:31;20.23;;;14.43;;
20531;SDS011;10424;52.102;8.084;2023-08-30T01:46:59;19.23;;;15.00;;
20531;SDS011;10424;52.102;8.084;2023-08-30T01:49:28;19.88;;;15.40;;
20531;SDS011;10424;52.102;8.084;2023-08-30T01:51:57;20.63;;;14.80;;
20531;SDS011;10424;52.102;8.084;2023-08-30T01:54:24;20.17;;;14.65;;
20531;SDS011;10424;52.102;8.084;2023-08-30T01:56:52;22.98;;;15.30;;
20531;SDS011;10424;52.102;8.084;2023-08-30T01:59:20;24.50;;;15.30;;
20531;SDS011;10424;52.102;8.084;2023-08-30T02:01:49;22.02;;;15.52;;
20531;SDS011;10424;52.102;8.084;2023-08-30T02:04:16;22.00;;;15.27;;
20531;SDS011;10424;52.102;8.084;2023-08-30T02:06:45;21.67;;;15.13;;
20531;SDS011;10424;52.102;8.084;2023-08-30T02:09:35;23.85;;;15.40;;
20531;SDS011;10424;52.102;8.084;2023-08-30T02:12:06;22.23;;;15.73;;
20531;SDS011;10424;52.102;8.084;2023-08-30T02:14:34;23.65;;;15.90;;
20531;SDS011;10424;52.102;8.084;2023-08-30T02:17:05;22.10;;;16.35;;
20531;SDS011;10424;52.102;8.084;2023-08-30T02:19:33;23.77;;;16.17;;
20531;SDS011;10424;52.102;8.084;2023-08-30T02:22:00;24.92;;;16.50;;
20531;SDS011;10424;52.102;8.084;2023-08-30T02:24:28;24.35;;;15.77;;
20531;SDS011;10424;52.102;8.084;2023-08-30T02:26:55;24.02;;;16.63;;
20531;SDS011;10424;52.102;8.084;2023-08-30T02:29:23;24.30;;;16.70;;
20531;SDS011;10424;52.102;8.084;2023-08-30T02:31:50;24.00;;;16.75;;
20531;SDS011;10424;52.102;8.084;2023-08-30T02:34:19;24.98;;;16.77;;
20531;SDS011;10424;52.102;8.084;2023-08-30T02:36:46;28.13;;;16.60;;
20531;SDS011;10424;52.102;8.084;2023-08-30T02:39:14;24.00;;;16.15;;
20531;SDS011;10424;52.102;8.084;2023-08-30T02:41:41;23.88;;;16.95;;
20531;SDS011;10424;52.102;8.084;2023-08-30T02:44:10;25.67;;;17.02;;
20531;SDS011;10424;52.102;8.084;2023-08-30T02:46:37;25.13;;;17.35;;
20531;SDS011;10424;52.102;8.084;2023-08-30T02:49:06;29.70;;;17.27;;
20531;SDS011;10424;52.102;8.084;2023-08-30T02:51:35;24.58;;;16.88;;
20531;SDS011;10424;52.102;8.084;2023-08-30T02:54:03;27.00;;;16.98;;
20531;SDS011;10424;52.102;8.084;2023-08-30T02:56:31;24.80;;;17.02;;
20531;SDS011;10424;52.102;8.084;2023-08-30T02:58:59;25.75;;;17.67;;
20531;SDS011;10424;52.102;8.084;2023-08-30T03:01:26;24.73;;;17.25;;
20531;SDS011;10424;52.102;8.084;2023-08-30T03:03:54;24.38;;;16.55;;
20531;SDS011;10424;52.102;8.084;2023-08-30T03:06:21;24.88;;;16.98;;
20531;SDS011;10424;52.102;8.084;2023-08-30T03:08:50;27.90;;;17.10;;
20531;SDS011;10424;52.102;8.084;2023-08-30T03:11:17;27.60;;;17.38;;
20531;SDS011;10424;52.102;8.084;2023-08-30T03:13:44;25.08;;;17.10;;
20531;SDS011;10424;52.102;8.084;2023-08-30T03:16:12;28.58;;;17.40;;
20531;SDS011;10424;52.102;8.084;2023-08-30T03:18:39;27.63;;;17.63;;
20531;SDS011;10424;52.102;8.084;2023-08-30T03:21:07;28.67;;;17.88;;
20531;SDS011;10424;52.102;8.084;2023-08-30T03:23:35;25.80;;;17.88;;
20531;SDS011;10424;52.102;8.084;2023-08-30T03:26:10;27.73;;;17.67;;
20531;SDS011;10424;52.102;8.084;2023-08-30T03:28:38;23.90;;;17.30;;
20531;SDS011;10424;52.102;8.084;2023-08-30T03:31:12;26.88;;;17.63;;
20531;SDS011;10424;52.102;8.084;2023-08-30T03:33:39;24.70;;;16.45;;
20531;SDS011;10424;52.102;8.084;2023-08-30T03:36:07;27.58;;;17.98;;
20531;SDS011;10424;52.102;8.084;2023-08-30T03:38:35;24.17;;;16.35;;
20531;SDS011;10424;52.102;8.084;2023-08-30T03:41:02;24.75;;;16.45;;
20531;SDS011;10424;52.102;8.084;2023-08-30T03:43:31;22.95;;;16.13;;
20531;SDS011;10424;52.102;8.084;2023-08-30T03:45:59;26.10;;;17.95;;
20531;SDS011;10424;52.102;8.084;2023-08-30T03:48:28;26.00;;;16.85;;
20531;SDS011;10424;52.102;8.084;2023-08-30T03:50:55;23.55;;;17.00;;
20531;SDS011;10424;52.102;8.084;2023-08-30T03:53:23;27.30;;;17.67;;
20531;SDS011;10424;52.102;8.084;2023-08-30T03:55:50;25.13;;;17.00;;
20531;SDS011;10424;52.102;8.084;2023-08-30T03:58:18;27.80;;;17.38;;
20531;SDS011;10424;52.102;8.084;2023-08-30T04:00:47;27.80;;;17.02;;
20531;SDS011;10424;52.102;8.084;2023-08-30T04:03:15;27.30;;;16.83;;
20531;SDS011;10424;52.102;8.084;2023-08-30T04:05:42;24.80;;;17.50;;
20531;SDS011;10424;52.102;8.084;2023-08-30T04:08:10;24.45;;;17.23;;
20531;SDS011;10424;52.102;8.084;2023-08-30T04:10:37;27.10;;;17.17;;
20531;SDS011;10424;52.102;8.084;2023-08-30T04:13:05;25.33;;;17.48;;
20531;SDS011;10424;52.102;8.084;2023-08-30T04:15:33;27.05;;;17.63;;
20531;SDS011;10424;52.102;8.084;2023-08-30T04:18:02;27.40;;;17.60;;
20531;SDS011;10424;52.102;8.084;2023-08-30T04:20:29;24.38;;;16.85;;
20531;SDS011;10424;52.102;8.084;2023-08-30T04:22:57;26.50;;;16.73;;
20531;SDS011;10424;52.102;8.084;2023-08-30T04:25:26;26.27;;;17.83;;
20531;SDS011;10424;52.102;8.084;2023-08-30T04:27:54;26.88;;;17.45;;
20531;SDS011;10424;52.102;8.084;2023-08-30T04:30:21;27.60;;;19.13;;
20531;SDS011;10424;52.102;8.084;2023-08-30T04:32:49;26.52;;;17.77;;
20531;SDS011;10424;52.102;8.084;2023-08-30T04:35:18;29.55;;;18.38;;
20531;SDS011;10424;52.102;8.084;2023-08-30T04:37:45;28.20;;;18.15;;
20531;SDS011;10424;52.102;8.084;2023-08-30T04:40:13;26.77;;;18.35;;
20531;SDS011;10424;52.102;8.084;2023-08-30T04:42:40;25.92;;;17.75;;
20531;SDS011;10424;52.102;8.084;2023-08-30T04:45:08;30.33;;;18.95;;
20531;SDS011;10424;52.102;8.084;2023-08-30T04:47:35;26.95;;;17.70;;
20531;SDS011;10424;52.102;8.084;2023-08-30T04:50:03;29.88;;;18.58;;
20531;SDS011;10424;52.102;8.084;2023-08-30T04:52:32;26.17;;;17.42;;
20531;SDS011;10424;52.102;8.084;2023-08-30T04:54:59;26.52;;;17.58;;
20531;SDS011;10424;52.102;8.084;2023-08-30T04:57:26;28.88;;;18.27;;
20531;SDS011;10424;52.102;8.084;2023-08-30T04:59:54;30.92;;;18.33;;
20531;SDS011;10424;52.102;8.084;2023-08-30T05:02:22;29.38;;;17.38;;
20531;SDS011;10424;52.102;8.084;2023-08-30T05:04:49;24.13;;;17.58;;
20531;SDS011;10424;52.102;8.084;2023-08-30T05:07:16;28.05;;;18.27;;
20531;SDS011;10424;52.102;8.084;2023-08-30T05:09:45;26.13;;;18.15;;
20531;SDS011;10424;52.102;8.084;2023-08-30T05:12:12;26.73;;;18.02;;
20531;SDS011;10424;52.102;8.084;2023-08-30T05:14:40;30.40;;;19.20;;
20531;SDS011;10424;52.102;8.084;2023-08-30T05:17:07;28.50;;;18.48;;
20531;SDS011;10424;52.102;8.084;2023-08-30T05:19:34;26.33;;;18.17;;
20531;SDS011;10424;52.102;8.084;2023-08-30T05:22:01;32.35;;;18.52;;
20531;SDS011;10424;52.102;8.084;2023-08-30T05:24:29;28.67;;;18.40;;
20531;SDS011;10424;52.102;8.084;2023-08-30T05:26:57;30.52;;;18.95;;
20531;SDS011;10424;52.102;8.084;2023-08-30T05:29:25;26.77;;;17.60;;
20531;SDS011;10424;52.102;8.084;2023-08-30T05:31:52;27.67;;;17.42;;
20531;SDS011;10424;52.102;8.084;2023-08-30T05:34:19;27.58;;;17.98;;
20531;SDS011;10424;52.102;8.084;2023-08-30T05:36:47;26.38;;;17.30;;
20531;SDS011;10424;52.102;8.084;2023-08-30T05:39:14;26.92;;;17.92;;
20531;SDS011;10424;52.102;8.084;2023-08-30T05:41:41;27.95;;;17.95;;
20531;SDS011;10424;52.102;8.084;2023-08-30T05:44:10;27.38;;;17.73;;
20531;SDS011;10424;52.102;8.084;2023-08-30T05:46:37;28.63;;;17.77;;
20531;SDS011;10424;52.102;8.084;2023-08-30T05:49:04;27.45;;;17.98;;
20531;SDS011;10424;52.102;8.084;2023-08-30T05:51:32;33.40;;;17.52;;
20531;SDS011;10424;52.102;8.084;2023-08-30T05:53:59;28.60;;;17.00;;
20531;SDS011;10424;52.102;8.084;2023-08-30T05:56:27;24.80;;;17.05;;
20531;SDS011;10424;52.102;8.084;2023-08-30T05:58:54;28.55;;;16.65;;
20531;SDS011;10424;52.102;8.084;2023-08-30T06:01:23;26.90;;;16.73;;
20531;SDS011;10424;52.102;8.084;2023-08-30T06:03:51;23.83;;;16.33;;
20531;SDS011;10424;52.102;8.084;2023-08-30T06:06:18;22.90;;;15.88;;
20531;SDS011;10424;52.102;8.084;2023-08-30T06:08:45;22.10;;;15.88;;
20531;SDS011;10424;52.102;8.084;2023-08-30T06:11:13;28.92;;;17.10;;
20531;SDS011;10424;52.102;8.084;2023-08-30T06:13:40;24.45;;;15.80;;
20531;SDS011;10424;52.102;8.084;2023-08-30T06:16:07;25.80;;;16.10;;
20531;SDS011;10424;52.102;8.084;2023-08-30T06:18:36;25.55;;;16.63;;
20531;SDS011;10424;52.102;8.084;2023-08-30T06:21:03;27.17;;;16.88;;
20531;SDS011;10424;52.102;8.084;2023-08-30T06:23:30;24.13;;;15.80;;
20531;SDS011;10424;52.102;8.084;2023-08-30T06:25:58;25.08;;;16.85;;
20531;SDS011;10424;52.102;8.084;2023-08-30T06:28:25;23.85;;;16.15;;
20531;SDS011;10424;52.102;8.084;2023-08-30T06:30:53;24.60;;;16.40;;
20531;SDS011;10424;52.102;8.084;2023-08-30T06:33:22;23.60;;;15.82;;
20531;SDS011;10424;52.102;8.084;2023-08-30T06:35:51;23.95;;;16.67;;
20531;SDS011;10424;52.102;8.084;2023-08-30T06:38:20;25.08;;;15.93;;
20531;SDS011;10424;52.102;8.084;2023-08-30T06:40:47;25.13;;;16.10;;
20531;SDS011;10424;52.102;8.084;2023-08-30T06:43:15;27.00;;;15.90;;
20531;SDS011;10424;52.102;8.084;2023-08-30T06:45:43;23.38;;;15.77;;
20531;SDS011;10424;52.102;8.084;2023-08-30T06:48:11;23.88;;;16.13;;
20531;SDS011;10424;52.102;8.084;2023-08-30T06:50:41;22.35;;;15.13;;
20531;SDS011;10424;52.102;8.084;2023-08-30T06:53:10;25.58;;;15.15;;
20531;SDS011;10424;52.102;8.084;2023-08-30T06:55:37;23.52;;;15.43;;
20531;SDS011;10424;52.102;8.084;2023-08-30T06:58:05;25.58;;;16.02;;
20531;SDS011;10424;52.102;8.084;2023-08-30T07:00:32;21.45;;;16.08;;
20531;SDS011;10424;52.102;8.084;2023-08-30T07:02:59;23.92;;;16.10;;
20531;SDS011;10424;52.102;8.084;2023-08-30T07:05:27;23.77;;;15.63;;
20531;SDS011;10424;52.102;8.084;2023-08-30T07:07:54;20.23;;;14.75;;
20531;SDS011;10424;52.102;8.084;2023-08-30T07:10:23;24.00;;;15.10;;
20531;SDS011;10424;52.102;8.084;2023-08-30T07:12:50;21.27;;;14.75;;
20531;SDS011;10424;52.102;8.084;2023-08-30T07:15:17;20.17;;;15.13;;
20531;SDS011;10424;52.102;8.084;2023-08-30T07:17:45;21.17;;;15.23;;
20531;SDS011;10424;52.102;8.084;2023-08-30T07:20:13;23.05;;;15.50;;
20531;SDS011;10424;52.102;8.084;2023-08-30T07:22:40;21.40;;;14.85;;
20531;SDS011;10424;52.102;8.084;2023-08-30T07:25:08;21.80;;;15.27;;
20531;SDS011;10424;52.102;8.084;2023-08-30T07:27:37;22.52;;;13.98;;
20531;SDS011;10424;52.102;8.084;2023-08-30T07:30:05;23.10;;;14.70;;
20531;SDS011;10424;52.102;8.084;2023-08-30T07:32:32;18.65;;;14.00;;
20531;SDS011;10424;52.102;8.084;2023-08-30T07:35:01;19.30;;;13.48;;
20531;SDS011;10424;52.102;8.084;2023-08-30T07:37:28;19.83;;;13.52;;
20531;SDS011;10424;52.102;8.084;2023-08-30T07:39:56;17.48;;;12.77;;
20531;SDS011;10424;52.102;8.084;2023-08-30T07:42:26;17.27;;;12.30;;
20531;SDS011;10424;52.102;8.084;2023-08-30T07:44:54;17.50;;;12.48;;
20531;SDS011;10424;52.102;8.084;2023-08-30T07:47:22;17.20;;;12.73;;
20531;SDS011;10424;52.102;8.084;2023-08-30T07:49:49;17.17;;;11.93;;
20531;SDS011;10424;52.102;8.084;2023-08-30T07:52:16;14.77;;;11.30;;
20531;SDS011;10424;52.102;8.084;2023-08-30T07:54:43;16.55;;;11.50;;
20531;SDS011;10424;52.102;8.084;2023-08-30T07:57:11;16.05;;;11.35;;
20531;SDS011;10424;52.102;8.084;2023-08-30T07:59:38;14.77;;;11.00;;
20531;SDS011;10424;52.102;8.084;2023-08-30T08:02:08;15.88;;;10.88;;
20531;SDS011;10424;52.102;8.084;2023-08-30T08:04:35;16.25;;;10.13;;
20531;SDS011;10424;52.102;8.084;2023-08-30T08:07:03;13.10;;;10.35;;
20531;SDS011;10424;52.102;8.084;2023-08-30T08:09:31;15.70;;;10.60;;
20531;SDS011;10424;52.102;8.084;2023-08-30T08:11:58;15.77;;;10.70;;
20531;SDS011;10424;52.102;8.084;2023-08-30T08:14:26;11.98;;;10.20;;
20531;SDS011;10424;52.102;8.084;2023-08-30T08:16:53;14.52;;;10.43;;
20531;SDS011;10424;52.102;8.084;2023-08-30T08:19:22;13.90;;;10.30;;
20531;SDS011;10424;52.102;8.084;2023-08-30T08:21:49;15.10;;;10.52;;
20531;SDS011;10424;52.102;8.084;2023-08-30T08:24:18;14.27;;;10.80;;
20531;SDS011;10424;52.102;8.084;2023-08-30T08:26:45;15.80;;;11.40;;
20531;SDS011;10424;52.102;8.084;2023-08-30T08:29:13;18.02;;;12.55;;
20531;SDS011;10424;52.102;8.084;2023-08-30T08:31:40;17.13;;;12.27;;
20531;SDS011;10424;52.102;8.084;2023-08-30T08:34:08;17.05;;;12.20;;
20531;SDS011;10424;52.102;8.084;2023-08-30T08:36:37;20.92;;;12.75;;
20531;SDS011;10424;52.102;8.084;2023-08-30T08:39:05;15.65;;;12.68;;
20531;SDS011;10424;52.102;8.084;2023-08-30T08:41:35;20.77;;;14.45;;
20531;SDS011;10424;52.102;8.084;2023-08-30T08:44:03;19.17;;;15.05;;
20531;SDS011;10424;52.102;8.084;2023-08-30T08:46:31;22.42;;;15.25;;
20531;SDS011;10424;52.102;8.084;2023-08-30T08:48:59;22.27;;;15.77;;
20531;SDS011;10424;52.102;8.084;2023-08-30T08:51:28;24.15;;;16.50;;
20531;SDS011;10424;52.102;8.084;2023-08-30T08:53:58;21.20;;;15.75;;
20531;SDS011;10424;52.102;8.084;2023-08-30T08:56:28;22.20;;;15.95;;
20531;SDS011;10424;52.102;8.084;2023-08-30T08:58:55;25.17;;;17.35;;
20531;SDS011;10424;52.102;8.084;2023-08-30T09:01:23;23.48;;;17.30;;
20531;SDS011;10424;52.102;8.084;2023-08-30T09:03:51;27.77;;;17.55;;
20531;SDS011;10424;52.102;8.084;2023-08-30T09:06:18;22.60;;;16.80;;
20531;SDS011;10424;52.102;8.084;2023-08-30T09:08:45;21.35;;;15.88;;
20531;SDS011;10424;52.102;8.084;2023-08-30T09:11:14;23.63;;;17.67;;
20531;SDS011;10424;52.102;8.084;2023-08-30T09:13:42;24.35;;;16.90;;
20531;SDS011;10424;52.102;8.084;2023-08-30T09:16:12;24.48;;;17.52;;
20531;SDS011;10424;52.102;8.084;2023-08-30T09:18:40;22.70;;;16.45;;
20531;SDS011;10424;52.102;8.084;2023-08-30T09:21:07;26.90;;;18.10;;
20531;SDS011;10424;52.102;8.084;2023-08-30T09:23:35;24.00;;;15.35;;
20531;SDS011;10424;52.102;8.084;2023-08-30T09:26:02;28.10;;;17.58;;
20531;SDS011;10424;52.102;8.084;2023-08-30T09:28:31;27.60;;;17.48;;
20531;SDS011;10424;52.102;8.084;2023-08-30T09:31:16;29.70;;;17.38;;
20531;SDS011;10424;52.102;8.084;2023-08-30T09:33:44;25.70;;;17.25;;
20531;SDS011;10424;52.102;8.084;2023-08-30T09:36:13;27.63;;;18.13;;
20531;SDS011;10424;52.102;8.084;2023-08-30T09:38:40;24.58;;;16.77;;
20531;SDS011;10424;52.102;8.084;2023-08-30T09:41:07;26.20;;;17.77;;
20531;SDS011;10424;52.102;8.084;2023-08-30T09:43:41;26.58;;;18.02;;
20531;SDS011;10424;52.102;8.084;2023-08-30T09:46:09;26.55;;;17.48;;
20531;SDS011;10424;52.102;8.084;2023-08-30T09:48:37;26.00;;;16.75;;
20531;SDS011;10424;52.102;8.084;2023-08-30T09:51:05;25.85;;;16.70;;
20531;SDS011;10424;52.102;8.084;2023-08-30T09:53:36;24.45;;;15.45;;
20531;SDS011;10424;52.102;8.084;2023-08-30T09:56:05;23.42;;;15.82;;
20531;SDS011;10424;52.102;8.084;2023-08-30T09:58:35;22.33;;;15.55;;
20531;SDS011;10424;52.102;8.084;2023-08-30T10:01:05;22.90;;;15.30;;
20531;SDS011;10424;52.102;8.084;2023-08-30T10:03:33;22.15;;;14.68;;
20531;SDS011;10424;52.102;8.084;2023-08-30T10:06:01;24.00;;;14.30;;
20531;SDS011;10424;52.102;8.084;2023-08-30T10:08:30;23.77;;;13.93;;
20531;SDS011;10424;52.102;8.084;2023-08-30T10:10:59;20.38;;;13.68;;
20531;SDS011;10424;52.102;8.084;2023-08-30T10:13:26;20.60;;;14.23;;
20531;SDS011;10424;52.102;8.084;2023-08-30T10:15:57;21.35;;;13.50;;
20531;SDS011;10424;52.102;8.084;2023-08-30T10:18:27;19.33;;;13.82;;
20531;SDS011;10424;52.102;8.084;2023-08-30T10:20:56;20.52;;;13.68;;
20531;SDS011;10424;52.102;8.084;2023-08-30T10:23:24;17.40;;;12.07;;
20531;SDS011;10424;52.102;8.084;2023-08-30T10:25:52;20.02;;;12.27;;
20531;SDS011;10424;52.102;8.084;2023-08-30T10:28:20;15.88;;;11.07;;
20531;SDS011;10424;52.102;8.084;2023-08-30T10:30:48;15.20;;;10.80;;
20531;SDS011;10424;52.102;8.084;2023-08-30T10:33:15;22.70;;;10.70;;
20531;SDS011;10424;52.102;8.084;2023-08-30T10:35:48;14.23;;;9.77;;
20531;SDS011;10424;52.102;8.084;2023-08-30T10:38:24;13.68;;;9.77;;
20531;SDS011;10424;52.102;8.084;2023-08-30T10:40:52;15.65;;;9.10;;
20531;SDS011;10424;52.102;8.084;2023-08-30T10:43:28;15.63;;;9.30;;
20531;SDS011;10424;52.102;8.084;2023-08-30T10:46:00;14.02;;;8.98;;
20531;SDS011;10424;52.102;8.084;2023-08-30T10:48:34;13.25;;;9.05;;
20531;SDS011;10424;52.102;8.084;2023-08-30T10:51:04;12.77;;;9.05;;
20531;SDS011;10424;52.102;8.084;2023-08-30T10:53:32;12.93;;;9.20;;
20531;SDS011;10424;52.102;8.084;2023-08-30T10:56:03;13.38;;;9.27;;
20531;SDS011;10424;52.102;8.084;2023-08-30T10:58:38;14.60;;;8.18;;
20531;SDS011;10424;52.102;8.084;2023-08-30T11:01:07;13.20;;;8.52;;
20531;SDS011;10424;52.102;8.084;2023-08-30T11:03:35;11.90;;;8.00;;
20531;SDS011;10424;52.102;8.084;2023-08-30T11:06:03;12.60;;;9.00;;
20531;SDS011;10424;52.102;8.084;2023-08-30T11:08:31;12.98;;;8.68;;
20531;SDS011;10424;52.102;8.084;2023-08-30T11:11:04;14.43;;;9.30;;
20531;SDS011;10424;52.102;8.084;2023-08-30T11:13:32;13.00;;;9.48;;
20531;SDS011;10424;52.102;8.084;2023-08-30T11:16:00;15.75;;;10.10;;
20531;SDS011;10424;52.102;8.084;2023-08-30T11:18:29;15.77;;;10.30;;
20531;SDS011;10424;52.102;8.084;2023-08-30T11:20:59;14.15;;;9.40;;
20531;SDS011;10424;52.102;8.084;2023-08-30T11:23:28;12.68;;;9.27;;
20531;SDS011;10424;52.102;8.084;2023-08-30T11:25:56;13.65;;;9.50;;
20531;SDS011;10424;52.102;8.084;2023-08-30T11:28:23;12.75;;;8.90;;
20531;SDS011;10424;52.102;8.084;2023-08-30T11:30:52;14.65;;;9.90;;
20531;SDS011;10424;52.102;8.084;2023-08-30T11:33:20;12.45;;;9.50;;
20531;SDS011;10424;52.102;8.084;2023-08-30T11:35:48;13.18;;;9.23;;
20531;SDS011;10424;52.102;8.084;2023-08-30T11:38:16;14.02;;;9.48;;
20531;SDS011;10424;52.102;8.084;2023-08-30T11:40:46;12.73;;;8.57;;
20531;SDS011;10424;52.102;8.084;2023-08-30T11:43:15;12.60;;;8.60;;
20531;SDS011;10424;52.102;8.084;2023-08-30T11:45:43;12.55;;;9.07;;
20531;SDS011;10424;52.102;8.084;2023-08-30T11:48:10;11.82;;;8.57;;
20531;SDS011;10424;52.102;8.084;2023-08-30T11:50:38;13.02;;;8.70;;
20531;SDS011;10424;52.102;8.084;2023-08-30T11:53:07;13.02;;;8.32;;
20531;SDS011;10424;52.102;8.084;2023-08-30T11:55:34;13.75;;;8.57;;
20531;SDS011;10424;52.102;8.084;2023-08-30T11:58:03;15.50;;;9.20;;
20531;SDS011;10424;52.102;8.084;2023-08-30T12:00:32;13.57;;;10.07;;
20531;SDS011;10424;52.102;8.084;2023-08-30T12:03:03;14.85;;;10.52;;
20531;SDS011;10424;52.102;8.084;2023-08-30T12:05:32;15.45;;;10.35;;
20531;SDS011;10424;52.102;8.084;2023-08-30T12:08:01;13.57;;;10.45;;
20531;SDS011;10424;52.102;8.084;2023-08-30T12:10:29;14.45;;;10.45;;
20531;SDS011;10424;52.102;8.084;2023-08-30T12:12:57;17.98;;;11.65;;
20531;SDS011;10424;52.102;8.084;2023-08-30T12:15:26;16.75;;;12.30;;
20531;SDS011;10424;52.102;8.084;2023-08-30T12:18:05;19.55;;;12.77;;
20531;SDS011;10424;52.102;8.084;2023-08-30T12:20:32;19.17;;;12.80;;
20531;SDS011;10424;52.102;8.084;2023-08-30T12:23:00;19.77;;;13.57;;
20531;SDS011;10424;52.102;8.084;2023-08-30T12:25:28;16.73;;;12.52;;
20531;SDS011;10424;52.102;8.084;2023-08-30T12:27:57;17.45;;;13.23;;
20531;SDS011;10424;52.102;8.084;2023-08-30T12:30:26;19.45;;;12.48;;
20531;SDS011;10424;52.102;8.084;2023-08-30T12:32:59;18.42;;;12.30;;
20531;SDS011;10424;52.102;8.084;2023-08-30T12:35:27;20.23;;;13.25;;
20531;SDS011;10424;52.102;8.084;2023-08-30T12:37:55;18.77;;;13.25;;
20531;SDS011;10424;52.102;8.084;2023-08-30T12:40:22;17.48;;;13.30;;
20531;SDS011;10424;52.102;8.084;2023-08-30T12:42:49;17.88;;;12.70;;
20531;SDS011;10424;52.102;8.084;2023-08-30T12:45:17;18.42;;;13.25;;
20531;SDS011;10424;52.102;8.084;2023-08-30T12:47:45;15.48;;;11.70;;
20531;SDS011;10424;52.102;8.084;2023-08-30T12:50:13;16.17;;;11.82;;
20531;SDS011;10424;52.102;8.084;2023-08-30T12:52:40;17.95;;;10.73;;
20531;SDS011;10424;52.102;8.084;2023-08-30T12:55:08;15.82;;;11.60;;
20531;SDS011;10424;52.102;8.084;2023-08-30T12:57:35;12.98;;;10.18;;
20531;SDS011;10424;52.102;8.084;2023-08-30T13:00:03;14.15;;;10.50;;
20531;SDS011;10424;52.102;8.084;2023-08-30T13:02:30;12.27;;;10.15;;
20531;SDS011;10424;52.102;8.084;2023-08-30T13:04:59;11.45;;;9.38;;
20531;SDS011;10424;52.102;8.084;2023-08-30T13:07:26;11.90;;;8.55;;
20531;SDS011;10424;52.102;8.084;2023-08-30T13:09:53;11.82;;;9.43;;
20531;SDS011;10424;52.102;8.084;2023-08-30T13:12:21;11.93;;;9.75;;
20531;SDS011;10424;52.102;8.084;2023-08-30T13:14:48;15.48;;;9.98;;
20531;SDS011;10424;52.102;8.084;2023-08-30T13:17:15;9.68;;;8.40;;
20531;SDS011;10424;52.102;8.084;2023-08-30T13:19:43;11.63;;;9.30;;
20531;SDS011;10424;52.102;8.084;2023-08-30T13:22:11;12.90;;;9.68;;
20531;SDS011;10424;52.102;8.084;2023-08-30T13:24:39;12.30;;;9.65;;
20531;SDS011;10424;52.102;8.084;2023-08-30T13:27:06;13.50;;;10.02;;
20531;SDS011;10424;52.102;8.084;2023-08-30T13:29:34;11.23;;;9.70;;
20531;SDS011;10424;52.102;8.084;2023-08-30T13:32:01;12.23;;;9.88;;
20531;SDS011;10424;52.102;8.084;2023-08-30T13:34:28;11.82;;;10.35;;
20531;SDS011;10424;52.102;8.084;2023-08-30T13:36:55;13.45;;;10.30;;
20531;SDS011;10424;52.102;8.084;2023-08-30T13:39:24;12.45;;;10.70;;
20531;SDS011;10424;52.102;8.084;2023-08-30T13:41:51;13.25;;;11.57;;
20531;SDS011;10424;52.102;8.084;2023-08-30T13:44:19;14.10;;;11.98;;
20531;SDS011;10424;52.102;8.084;2023-08-30T13:46:46;14.23;;;11.65;;
20531;SDS011;10424;52.102;8.084;2023-08-30T13:49:14;14.52;;;11.95;;
20531;SDS011;10424;52.102;8.084;2023-08-30T13:51:41;14.52;;;11.50;;
20531;SDS011;10424;52.102;8.084;2023-08-30T13:54:08;13.63;;;10.30;;
20531;SDS011;10424;52.102;8.084;2023-08-30T13:56:37;13.50;;;11.45;;
20531;SDS011;10424;52.102;8.084;2023-08-30T13:59:04;14.50;;;10.82;;
20531;SDS011;10424;52.102;8.084;2023-08-30T14:01:32;13.27;;;10.20;;
20531;SDS011;10424;52.102;8.084;2023-08-30T14:04:00;12.55;;;10.57;;
20531;SDS011;10424;52.102;8.084;2023-08-30T14:06:29;12.82;;;10.35;;
20531;SDS011;10424;52.102;8.084;2023-08-30T14:08:57;13.65;;;10.02;;
20531;SDS011;10424;52.102;8.084;2023-08-30T14:11:24;14.75;;;10.68;;
20531;SDS011;10424;52.102;8.084;2023-08-30T14:13:53;13.38;;;11.10;;
20531;SDS011;10424;52.102;8.084;2023-08-30T14:16:21;12.27;;;10.40;;
20531;SDS011;10424;52.102;8.084;2023-08-30T14:18:49;12.65;;;10.15;;
20531;SDS011;10424;52.102;8.084;2023-08-30T14:21:16;12.10;;;10.05;;
20531;SDS011;10424;52.102;8.084;2023-08-30T14:23:43;12.23;;;10.10;;
20531;SDS011;10424;52.102;8.084;2023-08-30T14:26:10;10.98;;;9.55;;
20531;SDS011;10424;52.102;8.084;2023-08-30T14:28:39;10.88;;;9.15;;
20531;SDS011;10424;52.102;8.084;2023-08-30T14:31:08;13.18;;;9.75;;